createdAt,value
2023-05-09T00:00:49.932Z,12.60
2023-05-09T00:03:16.942Z,12.70
2023-05-09T00:05:44.068Z,12.60
2023-05-09T00:08:11.157Z,12.60
2023-05-09T00:10:38.161Z,12.50
2023-05-09T00:13:05.119Z,12.50
2023-05-09T00:15:32.120Z,12.50
2023-05-09T00:17:59.476Z,12.40
2023-05-09T00:20:26.482Z,12.40
2023-05-09T00:22:53.376Z,12.40
2023-05-09T00:25:20.418Z,12.30
2023-05-09T00:27:47.381Z,12.30
2023-05-09T00:30:14.307Z,12.30
2023-05-09T00:32:41.725Z,12.20
2023-05-09T00:35:10.239Z,12.20
2023-05-09T00:37:37.319Z,12.10
2023-05-09T00:40:06.388Z,12.10
2023-05-09T00:42:33.609Z,12.10
2023-05-09T00:45:00.557Z,12.10
2023-05-09T00:47:28.655Z,12.10
2023-05-09T00:49:58.169Z,12.00
2023-05-09T00:52:26.195Z,11.90
2023-05-09T00:54:54.821Z,12.00
2023-05-09T00:57:22.620Z,11.90
2023-05-09T00:59:49.939Z,11.90
2023-05-09T01:02:18.204Z,11.90
2023-05-09T01:04:48.484Z,11.80
2023-05-09T01:07:38.137Z,11.80
2023-05-09T01:10:07.904Z,11.80
2023-05-09T01:12:43.918Z,11.70
2023-05-09T01:15:41.328Z,11.80
2023-05-09T01:18:31.096Z,11.70
2023-05-09T01:21:03.988Z,11.60
2023-05-09T01:24:11.995Z,11.60
2023-05-09T01:27:05.945Z,11.50
2023-05-09T01:29:46.009Z,11.60
2023-05-09T01:32:19.366Z,11.50
2023-05-09T01:34:49.204Z,11.40
2023-05-09T01:37:17.656Z,11.30
2023-05-09T01:39:49.223Z,11.40
2023-05-09T01:42:18.840Z,11.50
2023-05-09T01:44:47.239Z,11.40
2023-05-09T01:47:16.642Z,11.30
2023-05-09T01:49:44.749Z,11.30
2023-05-09T01:52:17.705Z,11.30
2023-05-09T01:54:45.970Z,11.10
2023-05-09T01:57:14.381Z,11.20
2023-05-09T01:59:44.666Z,11.10
2023-05-09T02:02:12.221Z,11.10
2023-05-09T02:04:42.205Z,11.10
2023-05-09T02:07:10.966Z,11.10
2023-05-09T02:09:38.090Z,11.10
2023-05-09T02:12:05.247Z,11.10
2023-05-09T02:14:32.239Z,11.00
2023-05-09T02:17:06.224Z,11.00
2023-05-09T02:19:36.578Z,11.00
2023-05-09T02:22:05.172Z,11.10
2023-05-09T02:24:34.327Z,11.00
2023-05-09T02:27:03.266Z,10.90
2023-05-09T02:29:41.965Z,10.90
2023-05-09T02:32:12.563Z,10.90
2023-05-09T02:34:41.044Z,10.80
2023-05-09T02:37:09.032Z,10.90
2023-05-09T02:39:36.662Z,10.80
2023-05-09T02:42:11.579Z,10.80
2023-05-09T02:44:41.339Z,10.80
2023-05-09T02:47:08.428Z,10.70
2023-05-09T02:49:35.304Z,10.70
2023-05-09T02:52:02.158Z,10.60
2023-05-09T02:54:29.575Z,10.60
2023-05-09T02:56:56.511Z,10.60
2023-05-09T02:59:23.480Z,10.70
2023-05-09T03:01:50.676Z,10.60
2023-05-09T03:04:18.117Z,10.70
2023-05-09T03:06:45.092Z,10.60
2023-05-09T03:09:11.971Z,10.60
2023-05-09T03:11:38.793Z,10.60
2023-05-09T03:14:06.296Z,10.60
2023-05-09T03:16:33.161Z,10.50
2023-05-09T03:19:00.041Z,10.60
2023-05-09T03:21:26.900Z,10.50
2023-05-09T03:23:53.755Z,10.40
2023-05-09T03:26:21.644Z,10.40
2023-05-09T03:28:49.007Z,10.50
2023-05-09T03:31:16.218Z,10.50
2023-05-09T03:33:43.070Z,10.40
2023-05-09T03:36:09.972Z,10.40
2023-05-09T03:38:36.839Z,10.40
2023-05-09T03:41:04.355Z,10.30
2023-05-09T03:43:31.207Z,10.30
2023-05-09T03:45:58.062Z,10.20
2023-05-09T03:48:24.911Z,10.20
2023-05-09T03:50:51.817Z,10.20
2023-05-09T03:53:18.817Z,10.20
2023-05-09T03:55:45.721Z,10.30
2023-05-09T03:58:13.006Z,10.20
2023-05-09T04:00:41.157Z,10.20
2023-05-09T04:03:08.282Z,10.20
2023-05-09T04:05:35.479Z,10.20
2023-05-09T04:08:03.220Z,10.20
2023-05-09T04:10:32.216Z,10.20
2023-05-09T04:12:59.260Z,10.20
2023-05-09T04:15:26.417Z,10.20
2023-05-09T04:17:53.279Z,10.20
2023-05-09T04:20:20.259Z,10.20
2023-05-09T04:22:47.413Z,10.10
2023-05-09T04:25:14.918Z,10.10
2023-05-09T04:27:41.945Z,10.10
2023-05-09T04:30:09.390Z,10.00
2023-05-09T04:32:36.924Z,10.00
2023-05-09T04:35:04.420Z,10.00
2023-05-09T04:37:32.760Z,10.10
2023-05-09T04:40:00.018Z,10.20
2023-05-09T04:42:26.859Z,10.10
2023-05-09T04:44:53.720Z,10.10
2023-05-09T04:47:20.653Z,10.00
2023-05-09T04:49:47.493Z,10.00
2023-05-09T04:52:14.357Z,10.10
2023-05-09T04:54:41.255Z,10.10
2023-05-09T04:57:17.322Z,10.20
2023-05-09T04:59:45.112Z,10.20
2023-05-09T05:02:12.901Z,10.30
2023-05-09T05:04:39.959Z,10.30
2023-05-09T05:07:06.887Z,10.30
2023-05-09T05:09:33.949Z,10.30
2023-05-09T05:12:03.603Z,10.30
2023-05-09T05:14:31.825Z,10.30
2023-05-09T05:16:58.786Z,10.40
2023-05-09T05:19:25.716Z,10.50
2023-05-09T05:21:52.584Z,10.50
2023-05-09T05:24:19.465Z,10.50
2023-05-09T05:26:46.455Z,10.50
2023-05-09T05:29:13.348Z,10.60
2023-05-09T05:31:40.199Z,10.70
2023-05-09T05:34:07.049Z,10.70
2023-05-09T05:36:33.962Z,10.80
2023-05-09T05:39:00.814Z,10.90
2023-05-09T05:41:27.872Z,11.50
2023-05-09T05:43:54.741Z,12.20
2023-05-09T05:46:21.691Z,12.70
2023-05-09T05:48:48.694Z,12.90
2023-05-09T05:51:15.545Z,13.10
2023-05-09T05:53:42.839Z,13.50
2023-05-09T05:56:09.729Z,13.90
2023-05-09T05:58:36.605Z,14.60
2023-05-09T06:01:03.527Z,15.00
2023-05-09T06:03:30.885Z,15.50
2023-05-09T06:05:57.986Z,15.30
2023-05-09T06:08:24.866Z,15.60
2023-05-09T06:10:51.734Z,15.60
2023-05-09T06:13:18.820Z,15.90
2023-05-09T06:15:45.764Z,15.90
2023-05-09T06:18:12.952Z,16.40
2023-05-09T06:20:39.921Z,16.20
2023-05-09T06:23:06.997Z,16.50
2023-05-09T06:25:33.996Z,17.30
2023-05-09T06:28:00.915Z,17.70
2023-05-09T06:30:27.853Z,18.20
2023-05-09T06:32:55.411Z,18.10
2023-05-09T06:35:22.553Z,17.40
2023-05-09T06:37:49.669Z,17.20
2023-05-09T06:40:17.108Z,17.30
2023-05-09T06:42:44.509Z,17.60
2023-05-09T06:45:11.911Z,17.60
2023-05-09T06:47:38.938Z,17.90
2023-05-09T06:50:06.376Z,17.60
2023-05-09T06:52:33.271Z,17.40
2023-05-09T06:55:00.210Z,17.80
2023-05-09T06:57:27.180Z,17.20
2023-05-09T06:59:54.079Z,16.90
2023-05-09T07:02:20.919Z,16.90
2023-05-09T07:04:47.988Z,17.30
2023-05-09T07:07:14.886Z,17.30
2023-05-09T07:09:42.051Z,17.70
2023-05-09T07:12:08.943Z,18.30
2023-05-09T07:14:35.869Z,18.40
2023-05-09T07:17:14.258Z,17.90
2023-05-09T07:19:49.355Z,17.60
2023-05-09T07:22:16.394Z,17.70
2023-05-09T07:24:44.593Z,18.00
2023-05-09T07:27:11.469Z,18.20
2023-05-09T07:29:38.415Z,18.40
2023-05-09T07:32:05.607Z,18.90
2023-05-09T07:34:32.527Z,18.90
2023-05-09T07:36:59.523Z,18.80
2023-05-09T07:39:26.665Z,19.20
2023-05-09T07:41:53.499Z,19.40
2023-05-09T07:44:20.268Z,19.20
2023-05-09T07:46:47.311Z,19.00
2023-05-09T07:49:14.172Z,19.50
2023-05-09T07:51:41.402Z,19.80
2023-05-09T07:54:10.036Z,20.10
2023-05-09T07:56:37.105Z,20.90
2023-05-09T07:59:03.967Z,21.20
2023-05-09T08:01:30.938Z,20.90
2023-05-09T08:03:57.926Z,21.00
2023-05-09T08:06:26.252Z,20.30
2023-05-09T08:08:53.119Z,20.60
2023-05-09T08:11:20.127Z,20.50
2023-05-09T08:13:48.187Z,21.00
2023-05-09T08:16:17.437Z,20.40
2023-05-09T08:18:44.828Z,20.70
2023-05-09T08:21:11.784Z,20.70
2023-05-09T08:23:38.749Z,21.10
2023-05-09T08:26:05.763Z,20.50
2023-05-09T08:28:32.643Z,20.30
2023-05-09T08:30:59.699Z,20.50
2023-05-09T08:33:26.676Z,20.40
2023-05-09T08:35:54.292Z,20.50
2023-05-09T08:38:21.165Z,20.30
2023-05-09T08:40:48.512Z,20.70
2023-05-09T08:43:19.209Z,20.90
2023-05-09T08:45:58.071Z,20.60
2023-05-09T08:48:27.001Z,20.70
2023-05-09T08:50:55.999Z,20.20
2023-05-09T08:53:23.233Z,20.20
2023-05-09T08:55:53.499Z,21.00
2023-05-09T08:58:22.775Z,20.70
2023-05-09T09:00:50.822Z,21.60
2023-05-09T09:03:18.605Z,21.40
2023-05-09T09:05:48.084Z,21.30
2023-05-09T09:08:15.859Z,21.10
2023-05-09T09:10:47.057Z,20.70
2023-05-09T09:13:19.111Z,20.80
2023-05-09T09:15:48.174Z,20.80
2023-05-09T09:18:35.349Z,21.70
2023-05-09T09:21:08.554Z,21.80
2023-05-09T09:23:39.114Z,22.00
2023-05-09T09:26:06.142Z,21.50
2023-05-09T09:28:34.090Z,21.60
2023-05-09T09:31:01.414Z,21.80
2023-05-09T09:33:29.354Z,21.80
2023-05-09T09:35:57.429Z,21.80
2023-05-09T09:38:25.045Z,21.70
2023-05-09T09:40:51.926Z,22.10
2023-05-09T09:43:19.160Z,22.10
2023-05-09T09:45:53.193Z,22.50
2023-05-09T09:48:24.779Z,22.60
2023-05-09T09:50:51.766Z,22.10
2023-05-09T09:53:20.717Z,22.40
2023-05-09T09:55:52.114Z,22.60
2023-05-09T09:58:22.123Z,22.60
2023-05-09T10:01:06.318Z,23.20
2023-05-09T10:03:37.722Z,23.20
2023-05-09T10:06:05.447Z,23.20
2023-05-09T10:08:32.409Z,23.20
2023-05-09T10:11:00.369Z,23.00
2023-05-09T10:13:28.082Z,22.60
2023-05-09T10:15:58.189Z,22.90
2023-05-09T10:18:30.189Z,23.40
2023-05-09T10:21:03.353Z,23.50
2023-05-09T10:23:32.781Z,23.90
2023-05-09T10:26:14.618Z,24.00
2023-05-09T10:28:44.991Z,23.70
2023-05-09T10:31:27.509Z,24.10
2023-05-09T10:33:58.768Z,23.70
2023-05-09T10:36:25.951Z,23.80
2023-05-09T10:38:55.178Z,23.70
2023-05-09T10:41:23.679Z,23.30
2023-05-09T10:43:51.109Z,22.80
2023-05-09T10:46:18.427Z,22.70
2023-05-09T10:48:45.693Z,22.80
2023-05-09T10:51:13.242Z,22.90
2023-05-09T10:53:48.690Z,22.80
2023-05-09T10:56:39.821Z,22.60
2023-05-09T10:59:06.892Z,22.90
2023-05-09T11:01:37.229Z,22.60
2023-05-09T11:04:12.862Z,22.80
2023-05-09T11:06:41.468Z,23.10
2023-05-09T11:09:33.395Z,23.00
2023-05-09T11:12:12.181Z,22.70
2023-05-09T11:14:49.537Z,23.00
2023-05-09T11:17:22.857Z,23.30
2023-05-09T11:19:49.868Z,23.70
2023-05-09T11:22:22.150Z,23.30
2023-05-09T11:25:00.184Z,23.10
2023-05-09T11:27:31.102Z,23.10
2023-05-09T11:29:59.705Z,23.10
2023-05-09T11:32:32.502Z,22.90
2023-05-09T11:35:10.485Z,23.30
2023-05-09T11:37:50.611Z,23.30
2023-05-09T11:40:19.395Z,23.20
2023-05-09T11:42:48.614Z,23.30
2023-05-09T11:45:16.936Z,23.50
2023-05-09T11:47:45.256Z,23.40
2023-05-09T11:50:14.163Z,23.50
2023-05-09T11:52:44.315Z,23.30
2023-05-09T11:55:14.299Z,23.20
2023-05-09T11:57:46.865Z,22.80
2023-05-09T12:00:16.512Z,23.30
2023-05-09T12:02:46.101Z,23.10
2023-05-09T12:05:15.356Z,23.30
2023-05-09T12:07:42.794Z,23.00
2023-05-09T12:10:11.457Z,23.20
2023-05-09T12:12:49.857Z,22.80
2023-05-09T12:15:17.681Z,22.90
2023-05-09T12:17:47.105Z,23.00
2023-05-09T12:20:15.150Z,22.80
2023-05-09T12:22:45.075Z,22.60
2023-05-09T12:25:12.546Z,22.70
2023-05-09T12:27:40.813Z,22.80
2023-05-09T12:30:10.297Z,23.00
2023-05-09T12:32:39.501Z,22.80
2023-05-09T12:35:11.305Z,22.60
2023-05-09T12:37:38.962Z,22.40
2023-05-09T12:40:15.796Z,22.50
2023-05-09T12:42:46.939Z,22.80
2023-05-09T12:45:14.609Z,22.90
2023-05-09T12:47:42.240Z,22.80
2023-05-09T12:50:12.344Z,22.70
2023-05-09T12:52:58.567Z,22.80
2023-05-09T12:55:29.028Z,23.10
2023-05-09T12:58:03.517Z,23.20
2023-05-09T13:00:44.930Z,23.30
2023-05-09T13:03:31.290Z,23.10
2023-05-09T13:06:02.086Z,23.10
2023-05-09T13:08:30.438Z,22.90
2023-05-09T13:11:11.907Z,22.80
2023-05-09T13:13:41.872Z,22.90
2023-05-09T13:16:10.369Z,23.00
2023-05-09T13:18:38.664Z,22.70
2023-05-09T13:21:05.615Z,22.80
2023-05-09T13:23:32.433Z,23.00
2023-05-09T13:25:59.342Z,22.80
2023-05-09T13:28:26.190Z,22.40
2023-05-09T13:30:53.092Z,22.50
2023-05-09T13:33:25.775Z,22.40
2023-05-09T13:35:53.981Z,22.40
2023-05-09T13:38:20.940Z,22.40
2023-05-09T13:40:48.148Z,22.60
2023-05-09T13:43:15.069Z,22.50
2023-05-09T13:45:41.888Z,22.40
2023-05-09T13:48:09.426Z,22.30
2023-05-09T13:50:36.273Z,22.10
2023-05-09T13:53:03.389Z,22.20
2023-05-09T13:55:30.888Z,22.40
2023-05-09T13:57:57.788Z,22.20
2023-05-09T14:00:26.562Z,22.20
2023-05-09T14:02:53.596Z,22.10
2023-05-09T14:05:20.523Z,22.20
2023-05-09T14:07:47.559Z,22.20
2023-05-09T14:10:14.490Z,22.00
2023-05-09T14:12:44.320Z,22.10
2023-05-09T14:15:11.509Z,22.00
2023-05-09T14:17:38.538Z,22.00
2023-05-09T14:20:06.586Z,22.00
2023-05-09T14:22:33.457Z,22.10
2023-05-09T14:25:00.317Z,22.00
2023-05-09T14:27:27.582Z,21.90
2023-05-09T14:29:54.494Z,21.70
2023-05-09T14:32:21.432Z,21.60
2023-05-09T14:34:49.713Z,21.60
2023-05-09T14:37:16.976Z,21.40
2023-05-09T14:39:48.373Z,21.30
2023-05-09T14:42:16.684Z,21.60
2023-05-09T14:44:50.309Z,21.60
2023-05-09T14:47:17.780Z,21.50
2023-05-09T14:49:44.680Z,21.60
2023-05-09T14:52:11.830Z,21.60
2023-05-09T14:54:45.467Z,21.50
2023-05-09T14:57:12.410Z,21.40
2023-05-09T14:59:39.323Z,21.40
2023-05-09T15:02:07.065Z,21.20
2023-05-09T15:04:34.178Z,21.20
2023-05-09T15:07:01.116Z,21.40
2023-05-09T15:09:28.286Z,21.40
2023-05-09T15:11:55.308Z,21.60
2023-05-09T15:14:22.361Z,21.60
2023-05-09T15:16:51.693Z,21.80
2023-05-09T15:19:19.079Z,21.90
2023-05-09T15:21:46.000Z,21.80
2023-05-09T15:24:13.065Z,21.60
2023-05-09T15:26:39.998Z,21.60
2023-05-09T15:29:07.122Z,21.80
2023-05-09T15:31:35.693Z,21.70
2023-05-09T15:34:02.780Z,21.70
2023-05-09T15:36:30.159Z,21.60
2023-05-09T15:38:57.389Z,21.50
2023-05-09T15:41:24.453Z,21.50
2023-05-09T15:43:52.258Z,21.60
2023-05-09T15:46:19.282Z,21.60
2023-05-09T15:48:46.282Z,21.60
2023-05-09T15:51:13.889Z,21.50
2023-05-09T15:53:41.104Z,21.40
2023-05-09T15:56:08.882Z,21.40
2023-05-09T15:58:35.922Z,21.30
2023-05-09T16:01:06.317Z,21.30
2023-05-09T16:03:33.784Z,21.50
2023-05-09T16:06:01.252Z,21.40
2023-05-09T16:08:28.303Z,21.50
2023-05-09T16:10:55.291Z,21.30
2023-05-09T16:13:22.469Z,21.20
2023-05-09T16:15:50.136Z,21.00
2023-05-09T16:18:17.125Z,21.00
2023-05-09T16:20:44.135Z,20.90
2023-05-09T16:23:11.796Z,20.90
2023-05-09T16:25:38.745Z,21.10
2023-05-09T16:28:07.056Z,21.10
2023-05-09T16:30:34.231Z,21.00
2023-05-09T16:33:01.178Z,20.90
2023-05-09T16:35:28.526Z,20.90
2023-05-09T16:37:55.406Z,20.80
2023-05-09T16:40:22.486Z,20.60
2023-05-09T16:42:49.640Z,20.60
2023-05-09T16:45:16.724Z,20.50
2023-05-09T16:47:43.670Z,20.40
2023-05-09T16:50:10.983Z,20.60
2023-05-09T16:52:37.924Z,20.60
2023-05-09T16:55:05.924Z,20.60
2023-05-09T16:57:33.513Z,20.50
2023-05-09T17:00:00.437Z,20.50
2023-05-09T17:02:27.674Z,20.50
2023-05-09T17:04:54.799Z,20.40
2023-05-09T17:07:21.867Z,20.40
2023-05-09T17:09:49.677Z,20.30
2023-05-09T17:12:18.294Z,20.30
2023-05-09T17:14:46.776Z,20.30
2023-05-09T17:17:14.828Z,20.30
2023-05-09T17:19:41.799Z,20.10
2023-05-09T17:22:09.249Z,20.10
2023-05-09T17:24:36.237Z,20.00
2023-05-09T17:27:05.407Z,19.90
2023-05-09T17:29:32.430Z,19.80
2023-05-09T17:32:02.542Z,19.70
2023-05-09T17:34:29.829Z,19.60
2023-05-09T17:36:56.982Z,19.60
2023-05-09T17:39:24.148Z,19.40
2023-05-09T17:41:51.274Z,19.30
2023-05-09T17:44:18.176Z,19.30
2023-05-09T17:46:45.275Z,19.20
2023-05-09T17:49:14.121Z,19.10
2023-05-09T17:51:41.483Z,19.00
2023-05-09T17:54:08.773Z,19.00
2023-05-09T17:56:35.659Z,19.00
2023-05-09T17:59:03.042Z,19.00
2023-05-09T18:01:30.035Z,18.90
2023-05-09T18:03:57.248Z,18.90
2023-05-09T18:06:24.372Z,19.00
2023-05-09T18:08:51.484Z,18.90
2023-05-09T18:11:18.353Z,18.90
2023-05-09T18:13:45.240Z,18.80
2023-05-09T18:16:12.290Z,18.70
2023-05-09T18:18:39.285Z,18.60
2023-05-09T18:21:07.991Z,18.50
2023-05-09T18:23:35.094Z,18.40
2023-05-09T18:26:02.066Z,18.30
2023-05-09T18:28:29.009Z,18.40
2023-05-09T18:30:58.527Z,18.30
2023-05-09T18:33:26.617Z,18.20
2023-05-09T18:35:54.584Z,18.20
2023-05-09T18:38:21.966Z,18.20
2023-05-09T18:40:49.689Z,18.10
2023-05-09T18:43:16.988Z,18.00
2023-05-09T18:45:45.114Z,17.90
2023-05-09T18:48:12.648Z,17.90
2023-05-09T18:50:40.256Z,17.90
2023-05-09T18:53:07.521Z,17.90
2023-05-09T18:55:34.504Z,17.80
2023-05-09T18:58:01.477Z,17.80
2023-05-09T19:00:28.937Z,17.60
2023-05-09T19:02:56.113Z,17.50
2023-05-09T19:05:23.205Z,17.60
2023-05-09T19:07:50.816Z,17.50
2023-05-09T19:10:18.905Z,17.40
2023-05-09T19:12:46.135Z,17.40
2023-05-09T19:15:13.155Z,17.20
2023-05-09T19:17:40.306Z,17.20
2023-05-09T19:20:08.570Z,17.20
2023-05-09T19:22:36.301Z,17.10
2023-05-09T19:25:03.244Z,17.10
2023-05-09T19:27:30.329Z,17.00
2023-05-09T19:29:57.226Z,16.90
2023-05-09T19:32:24.231Z,16.90
2023-05-09T19:34:51.159Z,16.90
2023-05-09T19:37:18.104Z,16.80
2023-05-09T19:39:44.949Z,16.80
2023-05-09T19:42:12.126Z,16.70
2023-05-09T19:44:40.401Z,16.60
2023-05-09T19:47:08.994Z,16.60
2023-05-09T19:49:35.950Z,16.50
2023-05-09T19:52:02.834Z,16.50
2023-05-09T19:54:31.161Z,16.50
2023-05-09T19:56:58.089Z,16.40
2023-05-09T19:59:24.954Z,16.50
2023-05-09T20:01:51.907Z,16.40
2023-05-09T20:04:21.863Z,16.50
2023-05-09T20:06:49.053Z,16.50
2023-05-09T20:09:20.745Z,16.40
2023-05-09T20:11:48.121Z,16.30
2023-05-09T20:14:15.093Z,16.30
2023-05-09T20:16:43.761Z,16.30
2023-05-09T20:19:13.975Z,16.20
2023-05-09T20:21:41.305Z,16.30
2023-05-09T20:24:08.836Z,16.20
2023-05-09T20:26:35.767Z,16.20
2023-05-09T20:29:02.794Z,16.30
2023-05-09T20:31:30.514Z,16.30
2023-05-09T20:33:58.298Z,16.20
2023-05-09T20:36:26.736Z,16.20
2023-05-09T20:38:53.705Z,16.20
2023-05-09T20:41:20.670Z,16.10
2023-05-09T20:43:47.874Z,16.00
2023-05-09T20:46:15.366Z,16.10
2023-05-09T20:48:42.266Z,16.00
2023-05-09T20:51:09.234Z,15.90
2023-05-09T20:53:37.713Z,15.90
2023-05-09T20:56:04.950Z,15.90
2023-05-09T20:58:33.676Z,15.90
2023-05-09T21:01:00.755Z,15.90
2023-05-09T21:03:27.823Z,15.90
2023-05-09T21:05:54.735Z,15.80
2023-05-09T21:08:23.446Z,15.80
2023-05-09T21:10:54.345Z,15.80
2023-05-09T21:13:21.485Z,15.80
2023-05-09T21:15:51.608Z,15.70
2023-05-09T21:18:19.181Z,15.70
2023-05-09T21:20:46.299Z,15.70
2023-05-09T21:23:14.271Z,15.60
2023-05-09T21:25:41.162Z,15.70
2023-05-09T21:28:08.097Z,15.60
2023-05-09T21:30:35.060Z,15.50
2023-05-09T21:33:04.074Z,15.50
2023-05-09T21:35:31.165Z,15.40
2023-05-09T21:37:58.065Z,15.40
2023-05-09T21:40:25.576Z,15.40
2023-05-09T21:42:52.556Z,15.30
2023-05-09T21:45:19.528Z,15.30
2023-05-09T21:47:46.441Z,15.30
2023-05-09T21:50:14.325Z,15.30
2023-05-09T21:52:41.513Z,15.20
2023-05-09T21:55:08.767Z,15.20
2023-05-09T21:57:35.796Z,15.20
2023-05-09T22:00:05.330Z,15.20
2023-05-09T22:02:34.043Z,15.30
2023-05-09T22:05:01.101Z,15.20
2023-05-09T22:07:27.992Z,15.20
2023-05-09T22:09:54.990Z,15.10
2023-05-09T22:12:23.004Z,15.10
2023-05-09T22:14:56.393Z,15.10
2023-05-09T22:17:24.577Z,15.00
2023-05-09T22:19:52.043Z,15.00
2023-05-09T22:22:19.168Z,14.90
2023-05-09T22:24:46.070Z,14.90
2023-05-09T22:27:12.978Z,14.90
2023-05-09T22:29:39.852Z,15.00
2023-05-09T22:32:08.258Z,14.90
2023-05-09T22:34:35.764Z,14.80
2023-05-09T22:37:02.761Z,14.70
2023-05-09T22:39:30.901Z,14.70
2023-05-09T22:41:57.946Z,14.70
2023-05-09T22:44:24.868Z,14.70
2023-05-09T22:46:51.727Z,14.70
2023-05-09T22:49:18.752Z,14.70
2023-05-09T22:51:45.702Z,14.60
2023-05-09T22:54:12.678Z,14.70
2023-05-09T22:56:39.559Z,14.60
2023-05-09T22:59:06.457Z,14.50
2023-05-09T23:01:33.486Z,14.50
2023-05-09T23:04:00.471Z,14.50
2023-05-09T23:06:27.498Z,14.50
2023-05-09T23:08:54.384Z,14.50
2023-05-09T23:11:23.712Z,14.30
2023-05-09T23:13:50.632Z,14.30
2023-05-09T23:16:17.638Z,14.30
2023-05-09T23:18:44.629Z,14.30
2023-05-09T23:21:11.699Z,14.20
2023-05-09T23:23:38.640Z,14.20
2023-05-09T23:26:05.523Z,14.20
2023-05-09T23:28:32.566Z,14.20
2023-05-09T23:30:59.405Z,14.20
2023-05-09T23:33:26.251Z,14.20
2023-05-09T23:35:54.232Z,14.10
2023-05-09T23:38:21.102Z,14.10
2023-05-09T23:40:48.096Z,14.10
2023-05-09T23:43:15.140Z,14.00
2023-05-09T23:45:42.644Z,14.00
2023-05-09T23:48:09.678Z,14.00
2023-05-09T23:50:36.605Z,13.90
2023-05-09T23:53:04.926Z,14.00
2023-05-09T23:55:32.164Z,13.90
2023-05-09T23:58:00.615Z,13.90
